Time;durP1;ratioP1;P1;durP2;ratioP2;P2;SDS_P1;SDS_P2;PMS_P1;PMS_P2;Temp;Humidity;BMP_temperature;BMP_pressure;BME280_temperature;BME280_humidity;BME280_pressure;Samples;Min_cycle;Max_cycle;Signal;HPM_P1;HPM_P2
2022/12/25 00:00:01;;;;;;;2.45;0.98;;;9.70;96.70;;;;;;5133842;27;20594;-63
2022/12/25 00:02:29;;;;;;;3.03;1.70;;;9.70;96.80;;;;;;5133990;27;20247;-64
2022/12/25 00:04:57;;;;;;;2.97;1.50;;;9.80;96.80;;;;;;5133393;27;20199;-64
2022/12/25 00:07:24;;;;;;;2.95;0.90;;;9.80;96.70;;;;;;5132550;27;20229;-63
2022/12/25 00:09:52;;;;;;;1.80;1.00;;;9.80;96.80;;;;;;5133503;27;20187;-63
2022/12/25 00:12:21;;;;;;;2.05;1.10;;;9.80;96.90;;;;;;5133820;27;20274;-63
2022/12/25 00:14:49;;;;;;;5.60;1.27;;;9.80;96.90;;;;;;5133224;27;20237;-64
2022/12/25 00:17:18;;;;;;;2.45;1.20;;;9.80;96.90;;;;;;5133934;27;20654;-63
2022/12/25 00:19:45;;;;;;;4.95;1.17;;;9.80;96.90;;;;;;5133373;27;20180;-63
2022/12/25 00:22:13;;;;;;;2.53;1.25;;;9.90;96.90;;;;;;5133775;27;20230;-64
2022/12/25 00:24:40;;;;;;;1.95;1.00;;;9.80;97.20;;;;;;5132958;27;20645;-64
2022/12/25 00:27:08;;;;;;;2.45;1.45;;;9.80;97.40;;;;;;5133765;27;20191;-65
2022/12/25 00:29:36;;;;;;;3.13;1.45;;;9.80;97.60;;;;;;5130676;27;20661;-64
2022/12/25 00:32:03;;;;;;;2.00;1.20;;;9.70;97.60;;;;;;5133836;27;20226;-65
2022/12/25 00:34:33;;;;;;;3.38;1.30;;;9.70;98.00;;;;;;5133052;27;20190;-64
2022/12/25 00:37:01;;;;;;;2.15;1.30;;;9.70;98.10;;;;;;5133371;27;20191;-65
2022/12/25 00:39:28;;;;;;;2.75;1.40;;;9.60;98.10;;;;;;5132488;27;20283;-64
2022/12/25 00:44:40;;;;;;;2.20;1.10;;;9.60;98.80;;;;;;5135172;27;20209;-64
2022/12/25 00:47:08;;;;;;;2.47;1.50;;;9.50;98.90;;;;;;5133753;27;20195;-64
2022/12/25 00:49:37;;;;;;;2.65;1.40;;;9.50;99.00;;;;;;5137288;27;20194;-65
2022/12/25 00:52:05;;;;;;;3.47;1.50;;;9.60;98.70;;;;;;5155297;27;20191;-64
2022/12/25 00:54:32;;;;;;;2.63;1.40;;;9.50;98.80;;;;;;5135548;27;20211;-64
2022/12/25 00:56:59;;;;;;;3.50;2.10;;;9.50;99.00;;;;;;5134092;27;20197;-64
2022/12/25 00:59:27;;;;;;;4.05;2.13;;;9.50;99.20;;;;;;5133362;27;20227;-64
2022/12/25 01:01:54;;;;;;;3.28;2.20;;;9.40;99.30;;;;;;5133985;27;20701;-64
2022/12/25 01:04:21;;;;;;;3.58;2.10;;;9.40;99.60;;;;;;5133649;27;20191;-64
2022/12/25 01:06:50;;;;;;;2.38;1.35;;;9.30;99.70;;;;;;5133837;27;20278;-64
2022/12/25 01:12:02;;;;;;;2.75;1.70;;;9.20;99.90;;;;;;5134095;27;20281;-64
2022/12/25 01:14:30;;;;;;;3.55;1.70;;;9.10;99.90;;;;;;5133648;27;20184;-64
2022/12/25 01:16:57;;;;;;;2.83;1.40;;;9.20;99.90;;;;;;5133421;27;20247;-64
2022/12/25 01:19:25;;;;;;;2.63;1.70;;;9.20;99.90;;;;;;5133412;27;20194;-65
2022/12/25 01:21:53;;;;;;;2.13;1.10;;;9.30;99.90;;;;;;5133659;27;20580;-64
2022/12/25 01:24:21;;;;;;;2.10;1.40;;;9.20;99.90;;;;;;5133160;27;20203;-64
2022/12/25 01:26:48;;;;;;;2.30;1.25;;;9.20;99.90;;;;;;5133607;27;20226;-63
2022/12/25 01:29:16;;;;;;;2.40;1.60;;;9.20;99.90;;;;;;5133120;27;20190;-64
2022/12/25 01:31:44;;;;;;;1.95;1.02;;;9.00;99.90;;;;;;5133444;27;20195;-64
2022/12/25 01:34:11;;;;;;;2.53;1.00;;;9.00;99.90;;;;;;5133072;27;20183;-64
2022/12/25 01:36:39;;;;;;;2.00;1.10;;;8.90;99.90;;;;;;5133591;27;20226;-64
2022/12/25 01:39:08;;;;;;;2.03;0.98;;;8.80;99.90;;;;;;5133080;27;20265;-65
2022/12/25 01:41:35;;;;;;;2.25;1.38;;;8.70;99.90;;;;;;5133462;27;20238;-64
2022/12/25 01:44:07;;;;;;;2.47;1.40;;;8.80;99.90;;;;;;5133175;27;20187;-64
2022/12/25 01:46:35;;;;;;;1.90;1.10;;;8.80;99.90;;;;;;5133687;27;20588;-64
2022/12/25 01:49:05;;;;;;;1.80;1.00;;;8.80;99.90;;;;;;5133082;27;20193;-64
2022/12/25 01:51:36;;;;;;;2.60;1.00;;;8.70;99.90;;;;;;5133355;27;20190;-65
2022/12/25 01:54:09;;;;;;;2.05;0.90;;;8.70;99.90;;;;;;5133279;27;20551;-65
2022/12/25 01:56:38;;;;;;;2.00;1.02;;;8.70;99.90;;;;;;5133254;27;20194;-64
2022/12/25 01:59:08;;;;;;;1.80;0.80;;;8.70;99.90;;;;;;5132837;28;20193;-64
2022/12/25 02:01:35;;;;;;;2.03;0.80;;;8.70;99.90;;;;;;5133095;27;20244;-64
2022/12/25 02:04:13;;;;;;;1.98;0.85;;;8.70;99.90;;;;;;5133085;27;20191;-65
2022/12/25 02:06:41;;;;;;;2.95;0.98;;;8.70;99.90;;;;;;5133114;27;20276;-64
2022/12/25 02:09:10;;;;;;;1.70;0.70;;;8.60;99.90;;;;;;5132767;27;20186;-64
2022/12/25 02:11:56;;;;;;;2.00;0.80;;;8.70;99.90;;;;;;5133205;27;20197;-64
2022/12/25 02:14:24;;;;;;;3.05;1.20;;;8.70;99.90;;;;;;5132536;27;20193;-64
2022/12/25 02:16:57;;;;;;;2.25;1.05;;;8.60;99.90;;;;;;5132257;27;20711;-64
2022/12/25 02:19:41;;;;;;;2.00;0.90;;;8.60;99.90;;;;;;5132751;27;20193;-63
2022/12/25 02:22:23;;;;;;;2.30;1.08;;;8.60;99.90;;;;;;5132908;27;20293;-64
2022/12/25 02:25:07;;;;;;;1.88;1.02;;;8.70;99.90;;;;;;5132963;28;20185;-66
2022/12/25 02:27:55;;;;;;;3.00;1.00;;;8.90;99.90;;;;;;5132908;27;20223;-64
2022/12/25 02:30:23;;;;;;;2.35;1.10;;;9.00;99.90;;;;;;5133352;27;20192;-64
2022/12/25 02:34:01;;;;;;;2.05;1.00;;;8.90;99.90;;;;;;5136905;27;20555;-64
2022/12/25 02:35:50;;;;;;;2.55;1.00;;;8.90;99.90;;;;;;5136204;27;20235;-64
2022/12/25 02:38:23;;;;;;;2.33;0.90;;;8.90;99.90;;;;;;5136655;27;20187;-64
2022/12/25 02:40:55;;;;;;;1.65;0.82;;;9.00;99.90;;;;;;5136346;27;20216;-64
2022/12/25 03:12:00;;;;;;;1.70;0.80;;;9.10;99.90;;;;;;5131799;27;20205;-65
2022/12/25 03:17:14;;;;;;;1.70;0.80;;;9.10;99.90;;;;;;5135937;27;20198;-64
2022/12/25 03:28:01;;;;;;;1.88;0.90;;;9.20;99.90;;;;;;5136155;27;20235;-64
2022/12/25 03:33:28;;;;;;;2.80;1.10;;;9.30;99.90;;;;;;5135484;27;20561;-64
2022/12/25 03:36:03;;;;;;;1.90;0.95;;;9.20;99.90;;;;;;5135560;27;20210;-64
2022/12/25 04:36:52;;;;;;;2.75;1.25;;;9.40;99.90;;;;;;5134169;27;20201;-64
2022/12/25 04:39:21;;;;;;;1.90;0.90;;;9.50;99.90;;;;;;5134204;27;20184;-64
2022/12/25 04:41:49;;;;;;;2.00;1.08;;;9.50;99.90;;;;;;5134352;27;20222;-64
2022/12/25 04:44:16;;;;;;;1.90;1.13;;;9.50;99.90;;;;;;5133978;27;20179;-64
2022/12/25 04:46:43;;;;;;;1.85;0.85;;;9.50;99.90;;;;;;5134066;27;20660;-64
2022/12/25 04:49:11;;;;;;;2.53;1.50;;;9.40;99.90;;;;;;5134353;27;20721;-64
2022/12/25 04:51:38;;;;;;;5.78;3.40;;;9.40;99.90;;;;;;5133563;27;20184;-64
2022/12/25 04:54:06;;;;;;;3.10;2.10;;;9.30;99.90;;;;;;5134072;27;20641;-64
2022/12/25 04:56:35;;;;;;;5.40;3.70;;;9.30;99.90;;;;;;5133782;27;20190;-65
2022/12/25 04:59:03;;;;;;;6.28;4.35;;;9.30;99.90;;;;;;5134309;27;20217;-66
2022/12/25 05:01:30;;;;;;;5.20;2.80;;;9.30;99.90;;;;;;5133451;27;20200;-64
2022/12/25 05:03:57;;;;;;;5.35;3.53;;;9.30;99.90;;;;;;5134355;27;20282;-64
2022/12/25 05:06:25;;;;;;;5.35;3.85;;;9.20;99.90;;;;;;5132797;27;20241;-64
2022/12/25 05:08:52;;;;;;;2.95;2.17;;;9.30;99.90;;;;;;5133977;27;20221;-64
2022/12/25 05:11:19;;;;;;;4.80;3.28;;;9.20;99.90;;;;;;5134048;27;20194;-64
2022/12/25 05:13:48;;;;;;;4.60;3.28;;;9.30;99.90;;;;;;5133626;27;20277;-64
2022/12/25 05:16:20;;;;;;;3.60;3.13;;;9.30;99.90;;;;;;5133748;27;20234;-64
2022/12/25 05:18:49;;;;;;;3.95;2.70;;;9.20;99.90;;;;;;5133690;27;20217;-64
2022/12/25 05:21:20;;;;;;;4.10;2.42;;;9.20;99.90;;;;;;5133671;27;20194;-64
2022/12/25 05:23:50;;;;;;;3.35;3.00;;;9.20;99.90;;;;;;5133371;27;20280;-64
2022/12/25 05:26:19;;;;;;;3.58;2.97;;;9.10;99.90;;;;;;5133806;27;20659;-64
2022/12/25 05:28:48;;;;;;;3.95;2.17;;;9.10;99.90;;;;;;5133370;27;20187;-65
2022/12/25 05:31:17;;;;;;;3.72;2.00;;;9.00;99.90;;;;;;5112997;28;20202;-64
2022/12/25 05:33:44;;;;;;;2.75;1.80;;;8.90;99.90;;;;;;5122602;27;20214;-64
2022/12/25 05:36:12;;;;;;;2.42;1.50;;;8.90;99.90;;;;;;5133697;27;20226;-65
2022/12/25 05:38:40;;;;;;;2.97;1.80;;;8.80;99.90;;;;;;5133088;27;20195;-64
2022/12/25 05:41:08;;;;;;;2.70;1.45;;;8.80;99.90;;;;;;5133703;27;20198;-64
2022/12/25 05:43:36;;;;;;;2.17;1.23;;;8.90;99.90;;;;;;5133087;28;20305;-64
2022/12/25 05:46:06;;;;;;;2.30;1.35;;;8.90;99.90;;;;;;5133355;27;20179;-65
2022/12/25 05:48:35;;;;;;;2.25;1.30;;;8.80;99.90;;;;;;5133468;27;20213;-64
2022/12/25 05:51:05;;;;;;;3.22;1.08;;;8.80;99.90;;;;;;5133725;27;20195;-64
2022/12/25 05:53:33;;;;;;;3.00;1.50;;;8.80;99.90;;;;;;5133219;27;20186;-65
2022/12/25 05:56:05;;;;;;;3.58;2.40;;;8.80;99.90;;;;;;5133838;27;20190;-65
2022/12/25 05:58:34;;;;;;;2.72;1.48;;;8.90;99.90;;;;;;5133064;27;20213;-64
2022/12/25 06:01:02;;;;;;;2.50;1.83;;;9.00;99.90;;;;;;5133516;27;20240;-64
2022/12/25 06:03:31;;;;;;;2.55;1.60;;;9.00;99.90;;;;;;5134086;27;20218;-64
2022/12/25 06:05:59;;;;;;;3.30;1.80;;;9.00;99.90;;;;;;5137581;27;20649;-65
2022/12/25 06:08:26;;;;;;;2.90;2.00;;;9.00;99.90;;;;;;5137181;27;20649;-64
2022/12/25 06:10:55;;;;;;;2.10;1.13;;;9.00;99.90;;;;;;5137354;27;20198;-64
2022/12/25 06:13:24;;;;;;;2.38;1.42;;;9.00;99.90;;;;;;5136781;27;20192;-64
2022/12/25 06:15:57;;;;;;;3.33;1.70;;;9.00;99.90;;;;;;5137392;27;20198;-64
2022/12/25 06:18:26;;;;;;;2.05;1.33;;;9.10;99.90;;;;;;5136895;27;20543;-64
2022/12/25 06:20:55;;;;;;;2.50;1.20;;;9.10;99.90;;;;;;5137557;27;20364;-64
2022/12/25 06:23:23;;;;;;;3.65;1.35;;;9.10;99.90;;;;;;5135685;27;20711;-64
2022/12/25 06:25:50;;;;;;;2.00;1.20;;;9.20;99.90;;;;;;5137431;27;20198;-64
2022/12/25 06:28:17;;;;;;;1.83;1.10;;;9.20;99.90;;;;;;5136844;27;20183;-64
2022/12/25 06:30:45;;;;;;;1.80;1.13;;;9.20;99.90;;;;;;5137121;27;20198;-64
2022/12/25 06:33:12;;;;;;;2.30;1.15;;;9.20;99.90;;;;;;5132760;27;20325;-64
2022/12/25 06:35:40;;;;;;;2.00;1.00;;;9.20;99.90;;;;;;5134936;27;20222;-65
2022/12/25 06:38:08;;;;;;;1.83;1.00;;;9.10;99.90;;;;;;5134466;27;20190;-65
2022/12/25 06:40:36;;;;;;;1.88;0.95;;;9.00;99.90;;;;;;5135087;27;20205;-65
2022/12/25 06:43:03;;;;;;;1.73;0.93;;;8.90;99.90;;;;;;5135536;27;20229;-63
2022/12/25 06:45:30;;;;;;;2.00;0.93;;;8.90;99.90;;;;;;5135247;27;20186;-63
2022/12/25 06:47:58;;;;;;;2.15;1.20;;;8.90;99.90;;;;;;5134874;27;20193;-65
2022/12/25 06:50:26;;;;;;;2.10;1.17;;;8.90;99.90;;;;;;5135197;27;20222;-64
2022/12/25 06:52:53;;;;;;;2.38;1.50;;;8.90;99.90;;;;;;5134770;27;20191;-64
2022/12/25 06:55:22;;;;;;;3.25;2.13;;;8.90;99.90;;;;;;5135003;27;20202;-65
2022/12/25 06:57:49;;;;;;;3.92;1.60;;;8.90;99.90;;;;;;5131872;27;20237;-63
2022/12/25 07:00:17;;;;;;;3.85;1.88;;;8.90;99.90;;;;;;5134724;27;20240;-64
2022/12/25 07:02:47;;;;;;;4.50;2.00;;;8.90;99.90;;;;;;5133672;27;20564;-64
2022/12/25 07:05:14;;;;;;;2.50;1.55;;;8.90;99.90;;;;;;5134261;27;20194;-64
2022/12/25 07:07:44;;;;;;;3.42;1.85;;;8.80;99.90;;;;;;5134522;27;20278;-64
2022/12/25 07:10:41;;;;;;;4.25;2.60;;;8.80;99.90;;;;;;5134189;27;20271;-64
2022/12/25 07:13:16;;;;;;;4.25;2.80;;;8.80;99.90;;;;;;5133431;27;20201;-65
2022/12/25 07:15:43;;;;;;;4.65;2.03;;;8.80;99.90;;;;;;5129233;27;20190;-64
2022/12/25 07:18:15;;;;;;;2.05;0.90;;;8.70;99.90;;;;;;5134503;27;20698;-64
2022/12/25 07:20:42;;;;;;;2.97;1.35;;;8.70;99.90;;;;;;5133980;27;20194;-65
2022/12/25 07:23:10;;;;;;;2.70;1.67;;;8.70;99.90;;;;;;5130314;27;20302;-64
2022/12/25 07:25:38;;;;;;;2.63;1.90;;;8.70;99.90;;;;;;5134202;27;20628;-64
2022/12/25 07:28:06;;;;;;;2.83;1.60;;;8.70;99.90;;;;;;5133372;27;20188;-65
2022/12/25 07:30:38;;;;;;;3.35;1.73;;;8.70;99.90;;;;;;5132815;27;20186;-65
2022/12/25 07:33:06;;;;;;;2.60;1.73;;;8.70;99.90;;;;;;5134150;27;20281;-64
2022/12/25 07:35:33;;;;;;;2.50;1.52;;;8.80;99.90;;;;;;5133826;27;20688;-64
2022/12/25 07:38:00;;;;;;;2.05;1.10;;;9.00;99.90;;;;;;5128979;27;20193;-66
2022/12/25 07:40:27;;;;;;;2.47;1.27;;;9.20;99.90;;;;;;5133016;27;20321;-63
2022/12/25 07:42:54;;;;;;;2.42;1.45;;;9.20;99.90;;;;;;5133266;27;20222;-64
2022/12/25 07:45:22;;;;;;;3.70;1.88;;;9.30;99.90;;;;;;5133337;27;20717;-64
2022/12/25 07:47:51;;;;;;;3.08;1.60;;;9.30;99.90;;;;;;5133179;27;20195;-64
2022/12/25 07:50:23;;;;;;;2.20;1.40;;;9.30;99.90;;;;;;5129252;27;20553;-63
2022/12/25 07:52:50;;;;;;;2.15;1.17;;;9.30;99.60;;;;;;5133433;27;20187;-63
2022/12/25 07:55:17;;;;;;;3.30;1.30;;;9.30;99.00;;;;;;5133318;27;20220;-64
2022/12/25 07:57:45;;;;;;;2.60;1.65;;;9.30;98.70;;;;;;5132625;27;20602;-64
2022/12/25 08:00:13;;;;;;;3.00;1.55;;;9.20;98.60;;;;;;5133698;27;20186;-64
2022/12/25 08:02:41;;;;;;;2.40;1.50;;;9.20;98.80;;;;;;5132188;27;20570;-65
2022/12/25 08:05:10;;;;;;;3.30;1.67;;;9.20;98.80;;;;;;5133032;27;20194;-65
2022/12/25 08:07:38;;;;;;;3.28;1.55;;;9.10;99.20;;;;;;5131828;27;20188;-64
2022/12/25 08:10:07;;;;;;;1.90;0.90;;;9.10;99.90;;;;;;5133550;27;20728;-63
2022/12/25 08:12:34;;;;;;;2.35;1.10;;;9.10;99.90;;;;;;5133034;27;20229;-64
2022/12/25 08:15:01;;;;;;;3.80;1.88;;;9.10;99.90;;;;;;5132746;27;20653;-63
2022/12/25 08:17:29;;;;;;;4.53;3.10;;;9.20;99.90;;;;;;5129891;27;20194;-63
2022/12/25 08:19:57;;;;;;;7.75;5.00;;;9.40;99.90;;;;;;5132828;27;20197;-63
2022/12/25 08:22:26;;;;;;;11.32;6.68;;;9.60;99.90;;;;;;5132221;27;20613;-64
2022/12/25 08:24:54;;;;;;;12.85;10.75;;;9.80;99.90;;;;;;5128153;27;20236;-63
2022/12/25 08:27:21;;;;;;;11.82;8.80;;;10.00;99.90;;;;;;5131002;27;20198;-64
2022/12/25 08:29:49;;;;;;;4.03;2.50;;;10.10;99.90;;;;;;5132262;27;20198;-68
2022/12/25 08:32:16;;;;;;;2.50;1.67;;;10.40;99.40;;;;;;5131353;27;20612;-63
2022/12/25 08:34:46;;;;;;;2.58;1.88;;;10.50;99.20;;;;;;5128153;27;20237;-63
2022/12/25 08:37:14;;;;;;;6.97;3.83;;;10.70;98.70;;;;;;5131875;27;20210;-63
2022/12/25 08:39:43;;;;;;;6.38;3.72;;;10.90;98.40;;;;;;5131879;27;20605;-64
2022/12/25 08:42:14;;;;;;;3.45;2.00;;;11.10;97.90;;;;;;5128276;27;20530;-64
2022/12/25 08:44:41;;;;;;;2.45;1.38;;;11.30;97.60;;;;;;5131940;27;20219;-63
2022/12/25 08:47:08;;;;;;;2.10;1.40;;;11.60;97.20;;;;;;5131700;27;20527;-67
2022/12/25 08:49:36;;;;;;;2.20;1.30;;;11.90;96.70;;;;;;5132118;27;20957;-64
2022/12/25 08:52:04;;;;;;;3.73;1.57;;;12.30;96.10;;;;;;5131626;27;20438;-63
2022/12/25 08:54:33;;;;;;;2.33;1.37;;;12.80;94.80;;;;;;5132088;27;20769;-65
2022/12/25 08:57:05;;;;;;;2.93;1.70;;;13.30;94.00;;;;;;5131654;27;20465;-64
2022/12/25 08:59:32;;;;;;;2.93;1.97;;;13.70;91.90;;;;;;5132061;27;20439;-64
2022/12/25 09:02:00;;;;;;;3.20;2.50;;;13.90;91.40;;;;;;5131315;27;20465;-64
2022/12/25 09:04:28;;;;;;;2.77;1.90;;;13.90;90.60;;;;;;5131595;27;20487;-63
2022/12/25 09:06:55;;;;;;;2.27;1.30;;;14.00;90.40;;;;;;5131600;27;20441;-64
2022/12/25 09:09:27;;;;;;;3.17;1.47;;;14.00;89.40;;;;;;5131832;27;20438;-63
2022/12/25 09:11:55;;;;;;;3.43;1.67;;;14.00;88.60;;;;;;5129083;27;20503;-65
2022/12/25 09:14:26;;;;;;;3.70;1.60;;;13.80;86.60;;;;;;5127111;27;20756;-65
2022/12/25 09:16:53;;;;;;;3.17;1.77;;;13.80;88.60;;;;;;5130585;27;20470;-64
2022/12/25 09:19:21;;;;;;;3.40;1.93;;;13.90;90.30;;;;;;5130035;27;20441;-63
2022/12/25 09:21:48;;;;;;;2.60;1.57;;;14.10;90.20;;;;;;5130550;27;20790;-65
2022/12/25 09:24:16;;;;;;;2.80;1.40;;;14.40;90.00;;;;;;5130319;27;20478;-64
2022/12/25 09:26:43;;;;;;;2.40;1.43;;;15.10;90.80;;;;;;5130060;27;20437;-64
2022/12/25 09:29:10;;;;;;;2.53;1.20;;;15.70;86.60;;;;;;5130347;27;20441;-64
2022/12/25 09:31:39;;;;;;;2.00;1.10;;;16.10;81.60;;;;;;5130166;27;20426;-64
2022/12/25 09:34:07;;;;;;;2.97;1.40;;;16.50;81.20;;;;;;5125896;27;20482;-64
2022/12/25 09:36:35;;;;;;;2.23;1.10;;;16.70;81.50;;;;;;5129937;27;20521;-68
2022/12/25 09:39:03;;;;;;;2.80;1.30;;;17.10;78.20;;;;;;5128888;27;20438;-64
2022/12/25 09:41:33;;;;;;;2.80;1.33;;;17.40;75.00;;;;;;5129784;27;20426;-65
2022/12/25 09:44:05;;;;;;;2.40;1.10;;;17.50;73.60;;;;;;5129682;27;20476;-65
2022/12/25 09:46:41;;;;;;;3.20;1.97;;;17.60;75.90;;;;;;5130343;27;20441;-64
2022/12/25 09:49:18;;;;;;;3.07;1.33;;;17.90;74.30;;;;;;5127385;28;20449;-65
2022/12/25 09:51:48;;;;;;;2.50;1.50;;;18.30;73.70;;;;;;5131147;27;20468;-64
2022/12/25 09:54:21;;;;;;;2.97;1.50;;;18.70;74.20;;;;;;5128544;28;20441;-64
2022/12/25 09:56:48;;;;;;;2.40;1.23;;;19.10;73.30;;;;;;5130664;27;20442;-65
2022/12/25 09:59:21;;;;;;;3.40;1.30;;;19.50;72.00;;;;;;5131196;27;20469;-64
2022/12/25 10:02:04;;;;;;;2.87;1.53;;;19.70;65.50;;;;;;5131106;27;20445;-65
2022/12/25 10:05:02;;;;;;;2.80;1.40;;;19.80;66.20;;;;;;5125047;27;20485;-66
2022/12/25 10:07:37;;;;;;;2.73;1.50;;;20.10;66.00;;;;;;5132227;27;20482;-66
2022/12/25 10:10:18;;;;;;;3.10;1.50;;;20.50;66.40;;;;;;5127363;28;20443;-64
2022/12/25 10:12:54;;;;;;;2.67;1.60;;;20.80;64.90;;;;;;5124993;27;20797;-65
2022/12/25 10:15:36;;;;;;;3.80;1.47;;;21.20;61.00;;;;;;5129282;27;20440;-64
2022/12/25 10:18:43;;;;;;;4.10;2.40;;;21.40;59.80;;;;;;5130378;27;20499;-65
2022/12/25 10:21:14;;;;;;;3.33;1.70;;;21.70;58.20;;;;;;5090533;27;20932;-65
2022/12/25 10:23:44;;;;;;;3.13;1.60;;;22.00;57.20;;;;;;5104694;28;20480;-66
2022/12/25 10:26:16;;;;;;;4.20;1.50;;;22.30;57.10;;;;;;5111267;28;20954;-65
2022/12/25 10:28:46;;;;;;;2.20;1.40;;;22.30;53.20;;;;;;5108464;28;20430;-65
2022/12/25 10:31:20;;;;;;;1.77;0.70;;;22.20;50.20;;;;;;5104623;28;20426;-65
2022/12/25 10:33:56;;;;;;;1.80;0.70;;;22.30;52.50;;;;;;5108369;28;20979;-64
2022/12/25 10:36:28;;;;;;;2.17;1.13;;;22.30;48.10;;;;;;5105094;28;20858;-65
2022/12/25 10:38:56;;;;;;;2.40;1.00;;;22.50;51.30;;;;;;5108870;28;20442;-65
2022/12/25 10:41:35;;;;;;;1.90;0.70;;;22.60;49.60;;;;;;5107662;28;21047;-64
2022/12/25 10:44:14;;;;;;;2.10;0.90;;;22.50;47.50;;;;;;5108226;28;20478;-67
2022/12/25 10:46:42;;;;;;;1.70;0.67;;;22.50;50.60;;;;;;5108354;28;20441;-65
2022/12/25 10:49:16;;;;;;;1.90;0.80;;;22.60;47.20;;;;;;5112359;28;20500;-65
2022/12/25 10:51:43;;;;;;;2.03;0.80;;;22.30;45.80;;;;;;5111379;28;20945;-64
2022/12/25 10:54:21;;;;;;;2.33;1.00;;;22.00;47.10;;;;;;5112601;28;20437;-64
2022/12/25 10:56:57;;;;;;;2.67;0.80;;;22.20;48.90;;;;;;5111232;28;20440;-63
2022/12/25 10:59:25;;;;;;;2.40;1.10;;;22.40;47.60;;;;;;5108765;27;20928;-64
2022/12/25 11:01:52;;;;;;;2.60;1.20;;;22.20;46.40;;;;;;5107689;28;20480;-64
2022/12/25 11:04:25;;;;;;;1.90;0.90;;;22.10;46.40;;;;;;5110870;28;20474;-64
2022/12/25 11:07:14;;;;;;;2.00;0.87;;;22.10;46.40;;;;;;5111833;28;20434;-65
2022/12/25 11:09:49;;;;;;;2.33;0.80;;;22.30;45.70;;;;;;5111513;28;20437;-64
2022/12/25 11:12:20;;;;;;;2.73;0.90;;;22.40;45.90;;;;;;5111704;28;20490;-64
2022/12/25 11:14:54;;;;;;;2.27;1.07;;;22.60;46.50;;;;;;5111528;28;20434;-66
2022/12/25 11:17:24;;;;;;;2.27;1.33;;;22.70;47.00;;;;;;5112044;27;20836;-64
2022/12/25 11:19:55;;;;;;;2.37;0.70;;;22.80;46.10;;;;;;5111972;27;20466;-65
2022/12/25 11:22:23;;;;;;;1.60;0.50;;;22.60;44.30;;;;;;5111694;28;20465;-65
2022/12/25 11:24:51;;;;;;;1.70;0.60;;;22.30;44.70;;;;;;5111835;27;21002;-66
2022/12/25 11:27:27;;;;;;;2.93;0.80;;;22.10;45.20;;;;;;5111902;28;20442;-63
2022/12/25 11:29:59;;;;;;;2.47;0.97;;;21.70;46.30;;;;;;5111458;28;20434;-65
2022/12/25 11:32:30;;;;;;;3.30;0.77;;;21.40;47.50;;;;;;5112630;28;20448;-64
2022/12/25 11:35:01;;;;;;;2.07;0.90;;;21.40;46.90;;;;;;5112959;27;20454;-65
2022/12/25 11:37:34;;;;;;;1.73;0.80;;;21.20;46.80;;;;;;5104689;27;21134;-64
2022/12/25 11:40:02;;;;;;;1.70;0.70;;;20.90;46.70;;;;;;5111922;28;20529;-65
2022/12/25 11:42:35;;;;;;;1.70;0.70;;;20.50;47.20;;;;;;5112156;28;20460;-65
2022/12/25 11:45:06;;;;;;;1.97;0.77;;;20.20;48.20;;;;;;5108729;28;20514;-64
2022/12/25 11:47:37;;;;;;;2.07;1.00;;;20.00;47.80;;;;;;5109561;27;20478;-64
2022/12/25 11:50:19;;;;;;;2.27;0.70;;;19.70;48.10;;;;;;5110565;28;20470;-64
2022/12/25 11:52:52;;;;;;;1.87;0.73;;;19.60;48.90;;;;;;5112025;28;20816;-63
2022/12/25 11:55:26;;;;;;;1.60;0.50;;;19.60;49.30;;;;;;5108897;28;20438;-64
2022/12/25 11:57:58;;;;;;;3.67;0.80;;;19.40;49.40;;;;;;5108443;28;20481;-68
2022/12/25 12:00:26;;;;;;;2.47;0.70;;;19.10;48.90;;;;;;5109244;28;20545;-64
2022/12/25 12:02:59;;;;;;;1.90;0.80;;;19.10;49.20;;;;;;5105703;28;20555;-65
2022/12/25 12:05:37;;;;;;;2.20;0.63;;;19.20;50.20;;;;;;5100592;27;20556;-64
2022/12/25 12:08:06;;;;;;;2.13;0.70;;;19.30;49.20;;;;;;5107633;28;20498;-65
2022/12/25 12:10:42;;;;;;;1.60;0.60;;;19.30;49.90;;;;;;5109848;28;20472;-64
2022/12/25 12:13:31;;;;;;;1.83;0.80;;;19.30;49.20;;;;;;5110617;28;20832;-65
2022/12/25 12:15:58;;;;;;;2.50;0.80;;;18.90;49.50;;;;;;5108405;28;20447;-64
2022/12/25 12:18:32;;;;;;;2.57;0.63;;;18.70;49.90;;;;;;5110842;28;20466;-64
2022/12/25 12:21:06;;;;;;;1.90;0.70;;;18.60;51.00;;;;;;5104338;28;20455;-64
2022/12/25 12:23:36;;;;;;;1.70;0.60;;;18.50;50.70;;;;;;5107592;28;20939;-64
2022/12/25 12:26:05;;;;;;;1.50;0.50;;;18.60;51.10;;;;;;5111974;27;20568;-63
2022/12/25 12:28:43;;;;;;;1.60;0.60;;;18.50;50.20;;;;;;5106371;28;20454;-63
2022/12/25 12:31:11;;;;;;;1.70;0.80;;;18.60;50.30;;;;;;5109497;28;20442;-64
2022/12/25 12:33:42;;;;;;;1.90;0.67;;;18.60;49.90;;;;;;5111663;28;21020;-63
2022/12/25 12:36:13;;;;;;;2.07;1.00;;;;;;;;;;5111993;28;20458;-65
2022/12/25 12:38:43;;;;;;;1.70;0.63;;;18.50;50.50;;;;;;5105951;28;20482;-64
2022/12/25 12:41:14;;;;;;;1.97;0.80;;;18.90;50.40;;;;;;5109678;28;21024;-65
2022/12/25 12:43:44;;;;;;;1.70;0.80;;;18.90;49.50;;;;;;5109698;28;20468;-65
2022/12/25 12:46:19;;;;;;;1.80;0.80;;;18.60;49.80;;;;;;5110204;28;20478;-63
2022/12/25 12:48:48;;;;;;;1.73;0.70;;;18.50;50.50;;;;;;5104747;28;20927;-64
2022/12/25 12:51:31;;;;;;;1.80;0.60;;;18.50;50.20;;;;;;5111273;28;20913;-64
2022/12/25 12:54:19;;;;;;;1.80;0.70;;;18.40;50.10;;;;;;5106589;28;20454;-63
2022/12/25 12:56:56;;;;;;;1.70;0.70;;;18.20;50.60;;;;;;5105114;28;20793;-63
2022/12/25 12:59:24;;;;;;;2.10;0.90;;;18.00;51.00;;;;;;5111854;28;20430;-64
2022/12/25 13:02:03;;;;;;;2.53;0.90;;;17.90;51.80;;;;;;5110808;28;20490;-64
2022/12/25 13:04:50;;;;;;;2.73;0.73;;;17.70;52.00;;;;;;5111141;27;20577;-65
2022/12/25 13:07:42;;;;;;;2.10;0.70;;;17.70;52.90;;;;;;5111551;28;20440;-63
2022/12/25 13:10:20;;;;;;;2.03;0.80;;;17.80;53.10;;;;;;5106531;28;20471;-64
2022/12/25 13:12:54;;;;;;;2.37;0.83;;;17.60;52.50;;;;;;5108007;28;20449;-64
2022/12/25 13:15:24;;;;;;;1.70;0.60;;;17.60;52.90;;;;;;5110151;28;20555;-64
2022/12/25 13:17:52;;;;;;;2.13;0.70;;;17.50;52.70;;;;;;5107517;28;20440;-63
2022/12/25 13:20:37;;;;;;;1.70;0.60;;;17.40;52.80;;;;;;5109748;28;20461;-63
2022/12/25 13:23:22;;;;;;;1.80;0.70;;;17.30;52.90;;;;;;5104587;28;20456;-63
2022/12/25 13:25:52;;;;;;;1.80;0.80;;;17.30;53.10;;;;;;5110277;28;20485;-64
2022/12/25 13:28:25;;;;;;;1.93;0.90;;;17.20;53.10;;;;;;5104737;28;20455;-63
2022/12/25 13:30:52;;;;;;;2.73;1.30;;;17.30;53.70;;;;;;5109931;28;20450;-63
2022/12/25 13:33:20;;;;;;;3.10;1.60;;;17.30;54.10;;;;;;5107693;28;20476;-63
2022/12/25 13:35:48;;;;;;;2.87;1.67;;;17.30;54.50;;;;;;5110274;28;20519;-63
2022/12/25 13:38:17;;;;;;;2.90;1.67;;;17.30;54.80;;;;;;5103180;28;20446;-63
2022/12/25 13:43:32;;;;;;;1.70;0.70;;;17.20;54.70;;;;;;5107074;28;20960;-63
2022/12/25 13:45:59;;;;;;;2.63;0.77;;;17.20;55.10;;;;;;5108176;28;20469;-64
2022/12/25 13:48:27;;;;;;;1.73;0.60;;;17.20;54.20;;;;;;5107046;28;20477;-68
2022/12/25 13:50:57;;;;;;;1.97;0.70;;;17.00;54.60;;;;;;5104739;28;21020;-63
2022/12/25 13:53:26;;;;;;;3.40;1.47;;;16.90;55.20;;;;;;5109055;28;20446;-63
2022/12/25 13:55:56;;;;;;;1.80;0.70;;;17.10;55.50;;;;;;5103712;28;20453;-63
2022/12/25 13:58:27;;;;;;;1.63;0.60;;;17.30;55.10;;;;;;5106833;28;21326;-63
2022/12/25 14:00:56;;;;;;;1.80;0.93;;;17.50;54.30;;;;;;5107702;28;20541;-64
2022/12/25 14:03:27;;;;;;;1.70;0.70;;;17.50;54.10;;;;;;5105380;28;20433;-63
2022/12/25 14:05:58;;;;;;;1.70;0.70;;;17.50;54.00;;;;;;5107252;28;20473;-64
2022/12/25 14:08:30;;;;;;;5.83;0.90;;;17.30;53.60;;;;;;5109163;28;20513;-64
2022/12/25 14:10:58;;;;;;;2.10;0.83;;;17.30;53.70;;;;;;5103565;28;20437;-63
2022/12/25 14:13:28;;;;;;;2.10;0.97;;;17.10;54.20;;;;;;5101750;28;20511;-64
2022/12/25 14:15:57;;;;;;;2.00;1.00;;;17.10;54.50;;;;;;5108386;28;20480;-64
2022/12/25 14:18:25;;;;;;;2.37;1.10;;;16.90;54.40;;;;;;5105942;28;20430;-63
2022/12/25 14:20:59;;;;;;;2.40;1.10;;;16.80;54.10;;;;;;5107222;28;20847;-63
2022/12/25 14:23:32;;;;;;;2.00;1.10;;;16.70;54.40;;;;;;5109306;28;20478;-63
2022/12/25 14:25:59;;;;;;;1.90;0.70;;;16.60;54.80;;;;;;5109328;28;20485;-63
2022/12/25 14:28:35;;;;;;;2.17;0.93;;;16.40;55.00;;;;;;5108420;28;20450;-63
2022/12/25 14:31:03;;;;;;;2.13;0.90;;;16.20;55.40;;;;;;5111206;28;20449;-65
2022/12/25 14:33:38;;;;;;;2.60;0.93;;;16.10;56.10;;;;;;5111469;28;20512;-63
2022/12/25 14:36:07;;;;;;;2.17;1.00;;;16.20;56.50;;;;;;5112457;28;20501;-64
2022/12/25 14:38:38;;;;;;;2.87;0.90;;;16.20;56.60;;;;;;5109982;28;20940;-67
2022/12/25 14:41:19;;;;;;;3.03;1.10;;;16.10;56.40;;;;;;5108697;28;20546;-64
2022/12/25 14:43:53;;;;;;;3.10;1.07;;;16.10;56.70;;;;;;5109039;28;20877;-63
2022/12/25 14:46:24;;;;;;;2.37;0.90;;;16.00;56.90;;;;;;5114378;28;21092;-62
2022/12/25 14:48:59;;;;;;;2.07;1.00;;;15.80;57.40;;;;;;5112753;28;20495;-64
2022/12/25 14:51:27;;;;;;;2.20;1.17;;;15.70;57.70;;;;;;5111431;28;20510;-63
2022/12/25 14:53:58;;;;;;;2.30;1.27;;;15.60;58.10;;;;;;5114521;28;20487;-63
2022/12/25 14:56:27;;;;;;;3.90;1.27;;;15.50;58.60;;;;;;5113992;28;20444;-63
2022/12/25 14:58:57;;;;;;;2.10;1.07;;;15.40;59.10;;;;;;5113308;28;20437;-63